createdAt,value
2023-05-10T00:01:51.590Z,15.82
2023-05-10T00:04:18.944Z,15.79
2023-05-10T00:06:46.057Z,15.78
2023-05-10T00:09:13.137Z,15.78
2023-05-10T00:11:40.214Z,15.77
2023-05-10T00:14:07.277Z,15.73
2023-05-10T00:16:34.520Z,15.78
2023-05-10T00:19:01.604Z,15.78
2023-05-10T00:21:29.510Z,15.69
2023-05-10T00:23:56.583Z,15.79
2023-05-10T00:26:23.646Z,15.88
2023-05-10T00:28:53.606Z,15.88
2023-05-10T00:31:20.840Z,15.87
2023-05-10T00:33:48.087Z,15.84
2023-05-10T00:36:15.179Z,15.84
2023-05-10T00:38:42.194Z,15.84
2023-05-10T00:41:09.685Z,15.85
2023-05-10T00:43:38.977Z,15.86
2023-05-10T00:46:07.050Z,15.86
2023-05-10T00:48:34.776Z,15.87
2023-05-10T00:51:03.081Z,15.88
2023-05-10T00:53:32.606Z,15.92
2023-05-10T00:56:00.672Z,15.92
2023-05-10T00:58:29.432Z,15.92
2023-05-10T01:00:59.776Z,15.94
2023-05-10T01:03:27.484Z,15.95
2023-05-10T01:05:54.616Z,15.97
2023-05-10T01:08:22.260Z,15.99
2023-05-10T01:10:50.370Z,15.99
2023-05-10T01:13:33.045Z,15.97
2023-05-10T01:16:03.074Z,15.93
2023-05-10T01:18:36.624Z,15.90
2023-05-10T01:21:33.157Z,15.88
2023-05-10T01:24:41.231Z,15.81
2023-05-10T01:27:36.055Z,15.77
2023-05-10T01:30:18.052Z,15.73
2023-05-10T01:32:59.020Z,15.68
2023-05-10T01:35:44.333Z,15.62
2023-05-10T01:38:41.643Z,15.58
2023-05-10T01:41:19.205Z,15.58
2023-05-10T01:44:37.204Z,15.54
2023-05-10T01:47:18.324Z,15.53
2023-05-10T01:49:53.100Z,15.51
2023-05-10T01:52:31.704Z,15.51
2023-05-10T01:55:06.053Z,15.49
2023-05-10T01:57:40.429Z,15.51
2023-05-10T02:00:09.963Z,15.49
2023-05-10T02:02:47.244Z,15.49
2023-05-10T02:05:16.696Z,15.49
2023-05-10T02:07:44.885Z,15.45
2023-05-10T02:10:14.600Z,15.45
2023-05-10T02:12:48.790Z,15.38
2023-05-10T02:15:22.097Z,15.38
2023-05-10T02:17:49.967Z,15.37
2023-05-10T02:20:20.413Z,15.38
2023-05-10T02:22:52.012Z,15.40
2023-05-10T02:25:22.350Z,15.43
2023-05-10T02:27:51.283Z,15.45
2023-05-10T02:30:20.154Z,15.41
2023-05-10T02:32:49.357Z,15.46
2023-05-10T02:35:17.475Z,15.44
2023-05-10T02:37:46.418Z,15.45
2023-05-10T02:40:16.062Z,15.46
2023-05-10T02:42:44.921Z,15.48
2023-05-10T02:45:16.461Z,15.48
2023-05-10T02:47:44.954Z,15.51
2023-05-10T02:50:12.351Z,15.54
2023-05-10T02:52:49.291Z,15.54
2023-05-10T02:55:19.116Z,15.55
2023-05-10T02:57:54.793Z,15.54
2023-05-10T03:00:21.935Z,15.56
2023-05-10T03:02:49.130Z,15.55
2023-05-10T03:05:16.890Z,15.50
2023-05-10T03:07:44.558Z,15.53
2023-05-10T03:10:12.073Z,15.60
2023-05-10T03:12:58.260Z,15.65
2023-05-10T03:15:54.596Z,15.62
2023-05-10T03:18:24.764Z,15.64
2023-05-10T03:21:02.918Z,15.61
2023-05-10T03:23:40.300Z,15.55
2023-05-10T03:26:09.298Z,15.53
2023-05-10T03:28:37.469Z,15.52
2023-05-10T03:31:07.378Z,15.50
2023-05-10T03:33:35.099Z,15.53
2023-05-10T03:36:02.357Z,15.45
2023-05-10T03:38:30.653Z,15.38
2023-05-10T03:40:58.090Z,15.31
2023-05-10T03:43:25.289Z,15.25
2023-05-10T03:45:52.812Z,15.20
2023-05-10T03:48:20.017Z,15.16
2023-05-10T03:50:47.079Z,15.13
2023-05-10T03:53:14.458Z,15.16
2023-05-10T03:55:41.459Z,15.14
2023-05-10T03:58:12.259Z,15.14
2023-05-10T04:00:44.714Z,15.15
2023-05-10T04:03:13.245Z,15.13
2023-05-10T04:05:40.604Z,15.13
2023-05-10T04:08:08.396Z,15.14
2023-05-10T04:10:35.532Z,15.18
2023-05-10T04:13:02.566Z,15.22
2023-05-10T04:15:29.910Z,15.28
2023-05-10T04:17:56.946Z,15.36
2023-05-10T04:20:24.186Z,15.43
2023-05-10T04:22:51.365Z,15.54
2023-05-10T04:25:18.481Z,15.66
2023-05-10T04:27:45.530Z,15.80
2023-05-10T04:30:12.881Z,15.92
2023-05-10T04:32:40.050Z,16.04
2023-05-10T04:35:07.528Z,16.15
2023-05-10T04:37:34.674Z,16.29
2023-05-10T04:40:01.754Z,16.44
2023-05-10T04:42:28.974Z,16.56
2023-05-10T04:44:56.029Z,16.69
2023-05-10T04:47:23.139Z,16.84
2023-05-10T04:49:50.169Z,16.99
2023-05-10T04:52:18.611Z,17.13
2023-05-10T04:54:45.564Z,17.26
2023-05-10T04:57:12.754Z,17.36
2023-05-10T04:59:39.754Z,17.50
2023-05-10T05:02:06.920Z,17.68
2023-05-10T05:04:34.003Z,17.86
2023-05-10T05:07:01.186Z,18.01
2023-05-10T05:09:28.227Z,18.18
2023-05-10T05:11:55.469Z,18.34
2023-05-10T05:14:22.476Z,18.46
2023-05-10T05:16:49.712Z,18.52
2023-05-10T05:19:16.972Z,18.67
2023-05-10T05:21:44.413Z,18.63
2023-05-10T05:24:12.359Z,18.51
2023-05-10T05:26:39.966Z,18.45
2023-05-10T05:29:07.045Z,18.34
2023-05-10T05:31:34.288Z,18.21
2023-05-10T05:34:01.303Z,18.14
2023-05-10T05:36:28.276Z,18.14
2023-05-10T05:38:56.120Z,18.20
2023-05-10T05:41:23.640Z,18.22
2023-05-10T05:43:50.771Z,18.18
2023-05-10T05:46:17.906Z,18.19
2023-05-10T05:48:44.949Z,18.11
2023-05-10T05:51:12.547Z,18.19
2023-05-10T05:53:39.566Z,18.16
2023-05-10T05:56:06.998Z,18.32
2023-05-10T05:58:34.145Z,18.42
2023-05-10T06:01:01.152Z,18.55
2023-05-10T06:03:28.415Z,18.60
2023-05-10T06:05:55.419Z,18.65
2023-05-10T06:08:22.763Z,18.72
2023-05-10T06:10:49.747Z,18.65
2023-05-10T06:13:16.917Z,18.63
2023-05-10T06:15:44.063Z,18.60
2023-05-10T06:18:11.179Z,18.61
2023-05-10T06:20:38.238Z,18.64
2023-05-10T06:23:05.521Z,18.51
2023-05-10T06:25:32.610Z,18.45
2023-05-10T06:27:59.668Z,18.40
2023-05-10T06:30:30.355Z,18.45
2023-05-10T06:32:58.145Z,18.51
2023-05-10T06:35:25.796Z,18.60
2023-05-10T06:37:53.336Z,18.64
2023-05-10T06:40:20.604Z,18.61
2023-05-10T06:42:48.780Z,18.64
2023-05-10T06:45:16.864Z,18.61
2023-05-10T06:47:44.877Z,18.55
2023-05-10T06:50:14.796Z,18.56
2023-05-10T06:52:41.940Z,18.51
2023-05-10T06:55:09.887Z,18.53
2023-05-10T06:57:37.357Z,18.61
2023-05-10T07:00:07.638Z,18.66
2023-05-10T07:02:34.953Z,18.71
2023-05-10T07:05:03.440Z,18.66
2023-05-10T07:07:31.009Z,18.67
2023-05-10T07:09:58.821Z,18.62
2023-05-10T07:12:26.633Z,18.77
2023-05-10T07:14:53.978Z,18.48
2023-05-10T07:17:21.336Z,18.70
2023-05-10T07:19:48.772Z,18.86
2023-05-10T07:22:19.102Z,18.96
2023-05-10T07:24:46.691Z,19.10
2023-05-10T07:27:14.216Z,19.15
2023-05-10T07:29:41.536Z,19.23
2023-05-10T07:32:08.664Z,19.29
2023-05-10T07:34:35.911Z,19.55
2023-05-10T07:37:03.234Z,19.66
2023-05-10T07:39:30.450Z,19.71
2023-05-10T07:41:57.550Z,19.82
2023-05-10T07:44:24.708Z,19.83
2023-05-10T07:46:51.998Z,19.85
2023-05-10T07:49:19.233Z,20.10
2023-05-10T07:51:46.514Z,20.04
2023-05-10T07:54:13.970Z,20.17
2023-05-10T07:56:46.615Z,19.75
2023-05-10T07:59:17.249Z,19.91
2023-05-10T08:01:45.392Z,19.49
2023-05-10T08:04:13.045Z,19.57
2023-05-10T08:06:41.031Z,19.85
2023-05-10T08:09:08.597Z,19.70
2023-05-10T08:11:36.313Z,19.79
2023-05-10T08:14:03.534Z,19.77
2023-05-10T08:16:30.801Z,19.48
2023-05-10T08:18:57.960Z,19.57
2023-05-10T08:21:25.087Z,19.89
2023-05-10T08:23:52.234Z,20.16
2023-05-10T08:26:19.443Z,20.02
2023-05-10T08:28:46.503Z,20.19
2023-05-10T08:31:13.653Z,20.20
2023-05-10T08:33:42.196Z,19.93
2023-05-10T08:36:10.439Z,19.73
2023-05-10T08:38:38.687Z,19.84
2023-05-10T08:41:07.341Z,19.91
2023-05-10T08:43:37.098Z,19.74
2023-05-10T08:46:06.478Z,19.61
2023-05-10T08:48:36.074Z,19.94
2023-05-10T08:51:04.867Z,20.11
2023-05-10T08:53:34.280Z,20.44
2023-05-10T08:56:04.859Z,20.88
2023-05-10T08:58:32.403Z,21.29
2023-05-10T09:01:00.857Z,21.36
2023-05-10T09:03:27.973Z,21.26
2023-05-10T09:05:56.945Z,21.23
2023-05-10T09:08:27.352Z,21.06
2023-05-10T09:10:56.253Z,20.89
2023-05-10T09:13:24.550Z,20.78
2023-05-10T09:15:52.652Z,20.68
2023-05-10T09:18:20.096Z,20.75
2023-05-10T09:20:47.473Z,20.89
2023-05-10T09:23:14.540Z,20.85
2023-05-10T09:25:43.467Z,20.71
2023-05-10T09:28:12.016Z,20.54
2023-05-10T09:30:40.365Z,20.37
2023-05-10T09:33:07.579Z,20.25
2023-05-10T09:35:34.789Z,20.04
2023-05-10T09:38:05.495Z,19.90
2023-05-10T09:40:33.284Z,19.75
2023-05-10T09:43:03.020Z,19.64
2023-05-10T09:45:32.346Z,19.57
2023-05-10T09:48:00.963Z,19.58
2023-05-10T09:50:28.870Z,19.45
2023-05-10T09:53:01.377Z,19.51
2023-05-10T09:55:40.314Z,19.53
2023-05-10T09:58:11.784Z,19.56
2023-05-10T10:00:44.178Z,19.57
2023-05-10T10:03:20.372Z,19.66
2023-05-10T10:05:49.044Z,19.78
2023-05-10T10:08:17.966Z,19.76
2023-05-10T10:10:47.669Z,19.82
2023-05-10T10:13:16.027Z,19.82
2023-05-10T10:15:43.782Z,19.85
2023-05-10T10:18:16.597Z,19.94
2023-05-10T10:20:43.973Z,19.96
2023-05-10T10:23:11.199Z,19.87
2023-05-10T10:25:39.854Z,19.94
2023-05-10T10:28:46.604Z,20.12
2023-05-10T10:31:18.882Z,20.28
2023-05-10T10:34:03.608Z,20.07
2023-05-10T10:36:31.536Z,20.06
2023-05-10T10:39:03.988Z,20.05
2023-05-10T10:41:35.592Z,20.10
2023-05-10T10:44:27.566Z,20.02
2023-05-10T10:47:19.664Z,19.83
2023-05-10T10:49:57.641Z,19.71
2023-05-10T10:52:42.064Z,19.46
2023-05-10T10:55:10.224Z,19.25
2023-05-10T10:58:05.335Z,19.13
2023-05-10T11:00:34.609Z,19.01
2023-05-10T11:03:15.949Z,18.96
2023-05-10T11:05:45.630Z,19.00
2023-05-10T11:08:15.702Z,18.87
2023-05-10T11:10:53.275Z,18.79
2023-05-10T11:13:30.601Z,18.72
2023-05-10T11:15:58.540Z,18.74
2023-05-10T11:18:29.895Z,18.67
2023-05-10T11:21:01.128Z,18.72
2023-05-10T11:23:32.930Z,18.63
2023-05-10T11:26:03.402Z,18.48
2023-05-10T11:28:30.528Z,18.28
2023-05-10T11:30:58.342Z,18.21
2023-05-10T11:33:25.585Z,18.12
2023-05-10T11:35:52.603Z,18.01
2023-05-10T11:38:19.793Z,18.22
2023-05-10T11:40:46.965Z,18.29
2023-05-10T11:43:14.043Z,18.42
2023-05-10T11:45:42.640Z,18.26
2023-05-10T11:48:09.778Z,18.42
2023-05-10T11:50:36.978Z,18.49
2023-05-10T11:53:04.070Z,18.73
2023-05-10T11:55:34.871Z,18.80
2023-05-10T11:58:03.528Z,19.16
2023-05-10T12:00:31.481Z,19.45
2023-05-10T12:02:59.362Z,19.59
2023-05-10T12:05:26.920Z,19.49
2023-05-10T12:07:54.118Z,19.75
2023-05-10T12:10:28.249Z,20.00
2023-05-10T12:12:55.486Z,20.08
2023-05-10T12:15:24.777Z,20.25
2023-05-10T12:17:52.373Z,20.48
2023-05-10T12:20:24.714Z,20.78
2023-05-10T12:22:58.944Z,20.69
2023-05-10T12:25:32.563Z,20.64
2023-05-10T12:28:03.823Z,20.53
2023-05-10T12:30:33.004Z,20.44
2023-05-10T12:33:11.190Z,20.46
2023-05-10T12:35:51.821Z,20.47
2023-05-10T12:38:44.220Z,20.38
2023-05-10T12:41:14.909Z,20.15
2023-05-10T12:43:42.264Z,19.98
2023-05-10T12:46:10.909Z,19.95
2023-05-10T12:48:38.937Z,19.86
2023-05-10T12:51:06.625Z,19.69
2023-05-10T12:53:33.707Z,19.72
2023-05-10T12:56:00.924Z,19.75
2023-05-10T12:58:35.451Z,19.67
2023-05-10T13:01:03.501Z,19.85
2023-05-10T13:03:30.803Z,20.07
2023-05-10T13:05:57.841Z,20.20
2023-05-10T13:08:25.280Z,20.19
2023-05-10T13:10:52.460Z,20.13
2023-05-10T13:13:19.581Z,19.98
2023-05-10T13:15:46.582Z,19.98
2023-05-10T13:18:14.188Z,19.94
2023-05-10T13:20:41.376Z,20.02
2023-05-10T13:23:08.402Z,20.09
2023-05-10T13:25:35.604Z,20.13
2023-05-10T13:28:03.188Z,20.34
2023-05-10T13:30:30.488Z,20.47
2023-05-10T13:32:57.553Z,20.53
2023-05-10T13:35:24.725Z,20.40
2023-05-10T13:37:51.792Z,20.34
2023-05-10T13:40:19.101Z,20.24
2023-05-10T13:42:46.589Z,20.14
2023-05-10T13:45:14.435Z,19.96
2023-05-10T13:47:42.174Z,19.80
2023-05-10T13:50:09.516Z,19.82
2023-05-10T13:52:36.732Z,19.74
2023-05-10T13:55:04.204Z,19.77
2023-05-10T13:57:31.573Z,19.68
2023-05-10T13:59:58.737Z,19.69
2023-05-10T14:02:26.974Z,19.61
2023-05-10T14:04:54.142Z,19.64
2023-05-10T14:07:21.121Z,19.62
2023-05-10T14:09:48.266Z,19.39
2023-05-10T14:12:15.763Z,19.37
2023-05-10T14:14:43.036Z,19.25
2023-05-10T14:17:12.138Z,19.11
2023-05-10T14:19:40.106Z,18.95
2023-05-10T14:22:07.415Z,18.94
2023-05-10T14:24:34.473Z,18.93
2023-05-10T14:27:01.797Z,18.80
2023-05-10T14:29:29.020Z,18.78
2023-05-10T14:31:56.168Z,18.81
2023-05-10T14:34:23.908Z,18.85
2023-05-10T14:36:51.720Z,18.83
2023-05-10T14:39:19.696Z,18.84
2023-05-10T14:41:48.249Z,18.91
2023-05-10T14:44:16.543Z,18.98
2023-05-10T14:46:43.673Z,18.90
2023-05-10T14:49:10.722Z,18.73
2023-05-10T14:51:38.504Z,18.88
2023-05-10T14:54:07.273Z,18.98
2023-05-10T14:56:34.669Z,19.14
2023-05-10T14:59:01.699Z,19.04
2023-05-10T15:01:29.911Z,18.94
2023-05-10T15:03:57.980Z,18.85
2023-05-10T15:06:33.494Z,18.79
2023-05-10T15:09:01.320Z,18.71
2023-05-10T15:11:28.499Z,18.65
2023-05-10T15:13:55.664Z,18.68
2023-05-10T15:16:23.675Z,18.66
2023-05-10T15:18:52.019Z,18.64
2023-05-10T15:21:19.151Z,18.61
2023-05-10T15:23:46.316Z,18.55
2023-05-10T15:26:13.417Z,18.47
2023-05-10T15:28:40.596Z,18.38
2023-05-10T15:31:07.983Z,18.52
2023-05-10T15:33:35.189Z,18.67
2023-05-10T15:36:02.222Z,18.74
2023-05-10T15:38:29.479Z,18.65
2023-05-10T15:40:59.145Z,18.70
2023-05-10T15:43:26.113Z,18.62
2023-05-10T15:45:53.217Z,18.49
2023-05-10T15:48:20.241Z,18.40
2023-05-10T15:50:47.423Z,18.39
2023-05-10T15:53:14.621Z,18.33
2023-05-10T15:55:41.644Z,18.26
2023-05-10T15:58:08.935Z,18.15
2023-05-10T16:00:36.159Z,18.10
2023-05-10T16:03:03.515Z,18.09
2023-05-10T16:05:33.722Z,18.02
2023-05-10T16:08:01.928Z,17.95
2023-05-10T16:10:33.267Z,17.83
2023-05-10T16:13:00.755Z,17.66
2023-05-10T16:15:27.799Z,17.49
2023-05-10T16:17:55.297Z,17.33
2023-05-10T16:20:22.453Z,17.20
2023-05-10T16:22:49.712Z,17.10
2023-05-10T16:25:17.303Z,16.99
2023-05-10T16:27:44.909Z,16.89
2023-05-10T16:30:12.576Z,16.84
2023-05-10T16:32:39.949Z,16.73
2023-05-10T16:35:07.891Z,16.63
2023-05-10T16:37:35.141Z,16.56
2023-05-10T16:40:02.317Z,16.48
2023-05-10T16:42:29.481Z,16.40
2023-05-10T16:44:56.529Z,16.37
2023-05-10T16:47:26.909Z,16.30
2023-05-10T16:49:54.181Z,16.18
2023-05-10T16:52:21.286Z,16.04
2023-05-10T16:54:48.548Z,15.98
2023-05-10T16:57:15.651Z,15.96
2023-05-10T16:59:42.870Z,15.93
2023-05-10T17:02:09.918Z,15.88
2023-05-10T17:04:37.252Z,15.86
2023-05-10T17:07:04.873Z,15.89
2023-05-10T17:09:31.940Z,15.90
2023-05-10T17:11:59.082Z,15.89
2023-05-10T17:14:26.637Z,15.93
2023-05-10T17:16:55.557Z,15.94
2023-05-10T17:19:25.638Z,15.98
2023-05-10T17:21:54.264Z,16.01
2023-05-10T17:24:22.208Z,16.03
2023-05-10T17:26:50.211Z,16.01
2023-05-10T17:29:20.141Z,15.99
2023-05-10T17:31:47.697Z,16.03
2023-05-10T17:34:14.954Z,16.11
2023-05-10T17:36:42.499Z,16.13
2023-05-10T17:39:09.654Z,16.05
2023-05-10T17:41:36.641Z,16.01
2023-05-10T17:44:03.702Z,16.01
2023-05-10T17:46:30.876Z,15.99
2023-05-10T17:48:58.131Z,15.97
2023-05-10T17:51:25.221Z,16.00
2023-05-10T17:53:52.896Z,16.00
2023-05-10T17:56:20.065Z,16.04
2023-05-10T17:58:47.249Z,16.06
2023-05-10T18:01:14.846Z,16.15
2023-05-10T18:03:42.522Z,16.18
2023-05-10T18:06:10.707Z,16.17
2023-05-10T18:08:38.525Z,16.21
2023-05-10T18:11:06.100Z,16.17
2023-05-10T18:13:33.858Z,16.11
2023-05-10T18:16:01.295Z,16.08
2023-05-10T18:18:28.938Z,16.05
2023-05-10T18:20:58.058Z,16.03
2023-05-10T18:23:25.641Z,15.97
2023-05-10T18:25:53.434Z,15.94
2023-05-10T18:28:20.489Z,15.92
2023-05-10T18:30:48.056Z,15.89
2023-05-10T18:33:15.026Z,15.81
2023-05-10T18:35:42.539Z,15.85
2023-05-10T18:38:13.671Z,15.88
2023-05-10T18:40:41.915Z,15.91
2023-05-10T18:43:09.133Z,15.92
2023-05-10T18:45:36.413Z,15.89
2023-05-10T18:48:03.647Z,15.85
2023-05-10T18:50:30.835Z,15.84
2023-05-10T18:52:57.929Z,15.75
2023-05-10T18:55:28.600Z,15.67
2023-05-10T18:57:55.837Z,15.54
2023-05-10T19:00:23.789Z,15.48
2023-05-10T19:02:53.983Z,15.38
2023-05-10T19:05:21.432Z,15.34
2023-05-10T19:07:48.653Z,15.31
2023-05-10T19:10:17.966Z,15.31
2023-05-10T19:12:46.592Z,15.28
2023-05-10T19:15:20.921Z,15.25
2023-05-10T19:17:50.720Z,15.19
2023-05-10T19:20:36.065Z,15.20
2023-05-10T19:25:36.223Z,15.29
2023-05-10T19:28:05.997Z,15.25
2023-05-10T19:30:33.392Z,15.24
2023-05-10T19:33:05.944Z,15.22
2023-05-10T19:35:33.282Z,15.18
2023-05-10T19:38:04.449Z,15.12
2023-05-10T19:40:31.876Z,15.08
2023-05-10T19:43:00.592Z,15.06
2023-05-10T19:45:28.088Z,15.04
2023-05-10T19:47:55.609Z,15.01
2023-05-10T19:50:23.911Z,15.01
2023-05-10T19:52:52.917Z,14.99
2023-05-10T19:55:32.513Z,14.99
2023-05-10T19:58:05.436Z,15.00
2023-05-10T20:00:33.201Z,14.99
2023-05-10T20:03:08.406Z,15.00
2023-05-10T20:05:37.207Z,15.05
2023-05-10T20:08:10.525Z,15.11
2023-05-10T20:10:38.327Z,15.14
2023-05-10T20:13:09.596Z,15.19
2023-05-10T20:15:37.209Z,15.16
2023-05-10T20:18:06.428Z,15.23
2023-05-10T20:20:35.226Z,15.28
2023-05-10T20:23:03.199Z,15.30
2023-05-10T20:25:30.643Z,15.30
2023-05-10T20:27:59.581Z,15.34
2023-05-10T20:30:33.599Z,15.46
2023-05-10T20:33:04.631Z,15.51
2023-05-10T20:35:34.455Z,15.49
2023-05-10T20:38:07.598Z,15.53
2023-05-10T20:40:36.902Z,15.57
2023-05-10T20:43:08.483Z,15.59
2023-05-10T20:45:37.910Z,15.59
2023-05-10T20:48:07.912Z,15.61
2023-05-10T20:50:36.468Z,15.58
2023-05-10T20:53:03.540Z,15.58
2023-05-10T20:55:32.556Z,15.60
2023-05-10T20:58:02.854Z,15.63
2023-05-10T21:00:32.032Z,15.71
2023-05-10T21:02:59.099Z,15.69
2023-05-10T21:05:27.811Z,15.62
2023-05-10T21:07:54.994Z,15.65
2023-05-10T21:10:22.249Z,15.67
2023-05-10T21:12:49.915Z,15.69
2023-05-10T21:15:17.829Z,15.68
2023-05-10T21:17:45.978Z,15.74
2023-05-10T21:20:13.732Z,15.74
2023-05-10T21:22:40.830Z,15.79
2023-05-10T21:25:08.342Z,15.79
2023-05-10T21:27:35.590Z,15.77
2023-05-10T21:30:02.705Z,15.74
2023-05-10T21:32:29.949Z,15.74
2023-05-10T21:34:57.012Z,15.75
2023-05-10T21:37:24.171Z,15.74
2023-05-10T21:39:52.949Z,15.71
2023-05-10T21:42:20.113Z,15.74
2023-05-10T21:44:47.275Z,15.67
2023-05-10T21:47:14.439Z,15.68
2023-05-10T21:49:41.509Z,15.74
2023-05-10T21:52:08.740Z,15.78
2023-05-10T21:54:37.424Z,15.80
2023-05-10T21:57:04.494Z,15.87
2023-05-10T21:59:31.696Z,15.90
2023-05-10T22:01:58.754Z,15.98
2023-05-10T22:04:26.109Z,16.01
2023-05-10T22:06:53.083Z,16.03
2023-05-10T22:09:20.258Z,16.02
2023-05-10T22:11:48.744Z,15.99
2023-05-10T22:14:15.841Z,15.98
2023-05-10T22:16:42.830Z,15.94
2023-05-10T22:19:10.083Z,15.87
2023-05-10T22:21:37.309Z,15.84
2023-05-10T22:24:04.488Z,15.77
2023-05-10T22:26:31.542Z,15.82
2023-05-10T22:28:58.667Z,15.79
2023-05-10T22:31:25.785Z,15.76
2023-05-10T22:33:52.832Z,15.70
2023-05-10T22:36:19.951Z,15.61
2023-05-10T22:38:47.180Z,15.55
2023-05-10T22:41:14.356Z,15.52
2023-05-10T22:43:41.339Z,15.47
2023-05-10T22:46:08.525Z,15.42
2023-05-10T22:48:35.994Z,15.35
2023-05-10T22:51:03.255Z,15.29
2023-05-10T22:53:30.452Z,15.25
2023-05-10T22:55:57.789Z,15.23
2023-05-10T22:58:24.889Z,15.20
2023-05-10T23:00:51.951Z,15.17
2023-05-10T23:03:19.084Z,15.16
2023-05-10T23:05:46.305Z,15.15
2023-05-10T23:08:13.663Z,15.15
2023-05-10T23:10:40.714Z,15.16
2023-05-10T23:13:08.080Z,15.19
2023-05-10T23:15:36.403Z,15.24
2023-05-10T23:18:06.063Z,15.27
2023-05-10T23:20:33.305Z,15.28
2023-05-10T23:23:00.325Z,15.29
2023-05-10T23:25:27.493Z,15.29
2023-05-10T23:27:54.475Z,15.29
2023-05-10T23:30:23.107Z,15.32
2023-05-10T23:32:50.208Z,15.32
2023-05-10T23:35:17.386Z,15.30
2023-05-10T23:37:44.459Z,15.30
2023-05-10T23:40:12.006Z,15.27
2023-05-10T23:42:39.168Z,15.23
2023-05-10T23:45:06.513Z,15.20
2023-05-10T23:47:33.661Z,15.17
2023-05-10T23:50:00.739Z,15.13
2023-05-10T23:52:27.876Z,15.12
2023-05-10T23:54:54.866Z,15.09
2023-05-10T23:57:22.016Z,15.08
2023-05-10T23:59:49.124Z,15.10
